Explorer — WBN7618 — position and weather

sailwx.info

Track history (hours):
 
Tides and Currents Weather Stations Pressure Air Temp Water Temp Dewpoint Dewpoint Depression Visibility Wind Speed Wind Dir Waves Ship Positions

Explorer

Owner: Crowley Puerto Rico Services, Inc, Jacksonville, FL. More information available from US FCC via Universal Licensing System and Coast Guard Vessel Documentation Center.

Last reported at 2017-Nov-14 20:06 UTC. Time now 2017-Nov-19 05:03 UTC.
Position N 39°05' W 075°11'.

; draft 5.4 m.

Type: Towing. MMSI: 366766860.

Date/timePositionNaut miles runAvg speedWind from/ knotsBaromVisibWave heightAir tempDewpointWater temp
2017-Nov-14 20:06N 39°05' W 075°11'2 8.9
2017-Nov-14 19:50N 39°07' W 075°12'4 9.1
2017-Nov-14 19:24N 39°10' W 075°15'4 9.9
2017-Nov-14 19:00N 39°13' W 075°18'611.0
2017-Nov-14 18:30N 39°18' W 075°22'611.7
2017-Nov-14 18:01N 39°22' W 075°27'611.4
2017-Nov-14 17:30N 39°26' W 075°32'510.3
2017-Nov-14 17:01N 39°31' W 075°33'510.5
2017-Nov-14 16:31N 39°36' W 075°34'5 9.7
2017-Nov-14 16:01N 39°41' W 075°31'5 9.8
2017-Nov-14 15:30N 39°45' W 075°29'4 8.9
2017-Nov-14 15:00N 39°48' W 075°25'4 8.3
2017-Nov-14 14:31N 39°51' W 075°21'4 7.3
2017-Nov-14 14:01N 39°51' W 075°16'3 6.8
2017-Nov-14 13:31N 39°53' W 075°12'3 6.6
2017-Nov-14 13:01N 39°54' W 075°08'4 7.4
2017-Nov-14 12:31N 39°58' W 075°08'1 2.2
2017-Nov-14 12:00N 39°58' W 075°07'0 0.3
2017-Nov-14 11:31N 39°58' W 075°07'0 0.0
2017-Nov-14 11:01N 39°58' W 075°07'0 0.0
2017-Nov-14 10:31N 39°58' W 075°07'0 0.4
2017-Nov-14 10:01N 39°58' W 075°07'1 2.0
2017-Nov-14 09:31N 39°59' W 075°05'0 0.0
2017-Nov-14 08:58N 39°59' W 075°05'0 0.0
2017-Nov-14 08:28N 39°59' W 075°05'0 0.0
2017-Nov-14 07:58N 39°59' W 075°05'0 0.0
2017-Nov-14 07:28N 39°59' W 075°05'0 0.0
2017-Nov-14 06:55N 39°59' W 075°05'0 0.0
2017-Nov-14 06:28N 39°59' W 075°05'0 0.0
2017-Nov-14 05:58N 39°59' W 075°05'0 0.0
2017-Nov-14 05:28N 39°59' W 075°05'0 0.0
2017-Nov-14 04:58N 39°59' W 075°05'0 0.0
2017-Nov-14 04:28N 39°59' W 075°05'0 0.0
2017-Nov-14 03:58N 39°59' W 075°05'0 0.0
2017-Nov-14 03:28N 39°59' W 075°05'0 0.0
2017-Nov-14 02:58N 39°59' W 075°05'0 0.0
2017-Nov-14 02:19N 39°59' W 075°05'0 0.0
2017-Nov-14 01:58N 39°59' W 075°05'0 0.0
2017-Nov-14 01:28N 39°59' W 075°05'0 0.0
2017-Nov-14 00:58N 39°59' W 075°05'0 0.0
2017-Nov-14 00:28N 39°59' W 075°05'0 0.0
2017-Nov-13 23:58N 39°59' W 075°05'0 0.0
2017-Nov-13 23:28N 39°59' W 075°05'0 0.0
2017-Nov-13 22:58N 39°59' W 075°05'0 0.0
2017-Nov-13 22:28N 39°59' W 075°05'0 0.0
2017-Nov-13 21:58N 39°59' W 075°05'0 0.0
2017-Nov-13 01:58N 39°59' W 075°05'0 0.0
2017-Nov-13 01:28N 39°59' W 075°05'0 0.0
2017-Nov-13 00:55N 39°59' W 075°05'0 0.0
2017-Nov-13 00:28N 39°59' W 075°05'0 0.0
2017-Nov-12 23:58N 39°59' W 075°05'0 0.0
2017-Nov-12 23:28N 39°59' W 075°05'0 0.0
2017-Nov-12 22:55N 39°59' W 075°05'0 0.0
2017-Nov-12 22:28N 39°59' W 075°05'0 0.0
2017-Nov-12 21:55N 39°59' W 075°05'0 0.0
2017-Nov-12 21:28N 39°59' W 075°05'0 0.0
2017-Nov-12 20:58N 39°59' W 075°05'0 0.0
2017-Nov-12 20:28N 39°59' W 075°05'0 0.0
2017-Nov-12 19:58N 39°59' W 075°05'0 0.0
2017-Nov-12 19:28N 39°59' W 075°05'0 0.0
2017-Nov-12 18:58N 39°59' W 075°05'0 0.0
2017-Nov-12 18:28N 39°59' W 075°05'0 0.0
2017-Nov-12 17:55N 39°59' W 075°05'0 0.0
2017-Nov-12 17:28N 39°59' W 075°05'0 0.0
2017-Nov-12 16:58N 39°59' W 075°05'0 0.0
2017-Nov-12 16:28N 39°59' W 075°05'0 0.0
2017-Nov-12 15:58N 39°59' W 075°05'0 0.0
2017-Nov-12 15:28N 39°59' W 075°05'0 0.0
2017-Nov-12 14:58N 39°59' W 075°05'0 0.0
2017-Nov-12 14:28N 39°59' W 075°05'1 1.7
2017-Nov-12 14:01N 39°58' W 075°06'0 0.8
2017-Nov-12 13:30N 39°58' W 075°07'0 0.0
2017-Nov-12 13:01N 39°58' W 075°07'0 0.0
2017-Nov-12 12:30N 39°58' W 075°07'0 0.1
2017-Nov-12 12:00N 39°58' W 075°07'2 3.2
2017-Nov-12 11:30N 39°57' W 075°08'4 8.6
2017-Nov-12 11:01N 39°53' W 075°10'611.1
2017-Nov-12 10:30N 39°51' W 075°17'611.2
2017-Nov-12 10:00N 39°49' W 075°24'611.3
2017-Nov-12 09:31N 39°45' W 075°29'611.3
2017-Nov-12 09:01N 39°40' W 075°32'510.0
2017-Nov-12 08:30N 39°35' W 075°34'510.6
2017-Nov-12 08:00N 39°30' W 075°33'510.0
2017-Nov-12 07:30N 39°25' W 075°31'510.4
2017-Nov-12 07:00N 39°21' W 075°27'510.2
2017-Nov-12 06:30N 39°18' W 075°22'510.1
2017-Nov-12 06:01N 39°14' W 075°18'  
Track history (hours):
 
Tides and Currents Weather Stations Pressure Air Temp Water Temp Dewpoint Dewpoint Depression Visibility Wind Speed Wind Dir Waves Ship Positions

Explorer

Owner: Crowley Puerto Rico Services, Inc, Jacksonville, FL. More information available from US FCC via Universal Licensing System and Coast Guard Vessel Documentation Center.

Last reported at 2017-Nov-14 20:06 UTC. Time now 2017-Nov-19 05:03 UTC.
Position N 39°05' W 075°11'.

; draft 5.4 m.

Type: Towing. MMSI: 366766860.

Date/timePositionNaut miles runAvg speedWind from/ knotsBaromVisibWave heightAir tempDewpointWater temp
2017-Nov-14 20:06N 39°05' W 075°11'2 8.9
2017-Nov-14 19:50N 39°07' W 075°12'4 9.1
2017-Nov-14 19:24N 39°10' W 075°15'4 9.9
2017-Nov-14 19:00N 39°13' W 075°18'611.0
2017-Nov-14 18:30N 39°18' W 075°22'611.7
2017-Nov-14 18:01N 39°22' W 075°27'611.4
2017-Nov-14 17:30N 39°26' W 075°32'510.3
2017-Nov-14 17:01N 39°31' W 075°33'510.5
2017-Nov-14 16:31N 39°36' W 075°34'5 9.7
2017-Nov-14 16:01N 39°41' W 075°31'5 9.8
2017-Nov-14 15:30N 39°45' W 075°29'4 8.9
2017-Nov-14 15:00N 39°48' W 075°25'4 8.3
2017-Nov-14 14:31N 39°51' W 075°21'4 7.3
2017-Nov-14 14:01N 39°51' W 075°16'3 6.8
2017-Nov-14 13:31N 39°53' W 075°12'3 6.6
2017-Nov-14 13:01N 39°54' W 075°08'4 7.4
2017-Nov-14 12:31N 39°58' W 075°08'1 2.2
2017-Nov-14 12:00N 39°58' W 075°07'0 0.3
2017-Nov-14 11:31N 39°58' W 075°07'0 0.0
2017-Nov-14 11:01N 39°58' W 075°07'0 0.0
2017-Nov-14 10:31N 39°58' W 075°07'0 0.4
2017-Nov-14 10:01N 39°58' W 075°07'1 2.0
2017-Nov-14 09:31N 39°59' W 075°05'0 0.0
2017-Nov-14 08:58N 39°59' W 075°05'0 0.0
2017-Nov-14 08:28N 39°59' W 075°05'0 0.0
2017-Nov-14 07:58N 39°59' W 075°05'0 0.0
2017-Nov-14 07:28N 39°59' W 075°05'0 0.0
2017-Nov-14 06:55N 39°59' W 075°05'0 0.0
2017-Nov-14 06:28N 39°59' W 075°05'0 0.0
2017-Nov-14 05:58N 39°59' W 075°05'0 0.0
2017-Nov-14 05:28N 39°59' W 075°05'0 0.0
2017-Nov-14 04:58N 39°59' W 075°05'0 0.0
2017-Nov-14 04:28N 39°59' W 075°05'0 0.0
2017-Nov-14 03:58N 39°59' W 075°05'0 0.0
2017-Nov-14 03:28N 39°59' W 075°05'0 0.0
2017-Nov-14 02:58N 39°59' W 075°05'0 0.0
2017-Nov-14 02:19N 39°59' W 075°05'0 0.0
2017-Nov-14 01:58N 39°59' W 075°05'0 0.0
2017-Nov-14 01:28N 39°59' W 075°05'0 0.0
2017-Nov-14 00:58N 39°59' W 075°05'0 0.0
2017-Nov-14 00:28N 39°59' W 075°05'0 0.0
2017-Nov-13 23:58N 39°59' W 075°05'0 0.0
2017-Nov-13 23:28N 39°59' W 075°05'0 0.0
2017-Nov-13 22:58N 39°59' W 075°05'0 0.0
2017-Nov-13 22:28N 39°59' W 075°05'0 0.0
2017-Nov-13 21:58N 39°59' W 075°05'0 0.0
2017-Nov-13 01:58N 39°59' W 075°05'0 0.0
2017-Nov-13 01:28N 39°59' W 075°05'0 0.0
2017-Nov-13 00:55N 39°59' W 075°05'0 0.0
2017-Nov-13 00:28N 39°59' W 075°05'0 0.0
2017-Nov-12 23:58N 39°59' W 075°05'0 0.0
2017-Nov-12 23:28N 39°59' W 075°05'0 0.0
2017-Nov-12 22:55N 39°59' W 075°05'0 0.0
2017-Nov-12 22:28N 39°59' W 075°05'0 0.0
2017-Nov-12 21:55N 39°59' W 075°05'0 0.0
2017-Nov-12 21:28N 39°59' W 075°05'0 0.0
2017-Nov-12 20:58N 39°59' W 075°05'0 0.0
2017-Nov-12 20:28N 39°59' W 075°05'0 0.0
2017-Nov-12 19:58N 39°59' W 075°05'0 0.0
2017-Nov-12 19:28N 39°59' W 075°05'0 0.0
2017-Nov-12 18:58N 39°59' W 075°05'0 0.0
2017-Nov-12 18:28N 39°59' W 075°05'0 0.0
2017-Nov-12 17:55N 39°59' W 075°05'0 0.0
2017-Nov-12 17:28N 39°59' W 075°05'0 0.0
2017-Nov-12 16:58N 39°59' W 075°05'0 0.0
2017-Nov-12 16:28N 39°59' W 075°05'0 0.0
2017-Nov-12 15:58N 39°59' W 075°05'0 0.0
2017-Nov-12 15:28N 39°59' W 075°05'0 0.0
2017-Nov-12 14:58N 39°59' W 075°05'0 0.0
2017-Nov-12 14:28N 39°59' W 075°05'1 1.7
2017-Nov-12 14:01N 39°58' W 075°06'0 0.8
2017-Nov-12 13:30N 39°58' W 075°07'0 0.0
2017-Nov-12 13:01N 39°58' W 075°07'0 0.0
2017-Nov-12 12:30N 39°58' W 075°07'0 0.1
2017-Nov-12 12:00N 39°58' W 075°07'2 3.2
2017-Nov-12 11:30N 39°57' W 075°08'4 8.6
2017-Nov-12 11:01N 39°53' W 075°10'611.1
2017-Nov-12 10:30N 39°51' W 075°17'611.2
2017-Nov-12 10:00N 39°49' W 075°24'611.3
2017-Nov-12 09:31N 39°45' W 075°29'611.3
2017-Nov-12 09:01N 39°40' W 075°32'510.0
2017-Nov-12 08:30N 39°35' W 075°34'510.6
2017-Nov-12 08:00N 39°30' W 075°33'510.0
2017-Nov-12 07:30N 39°25' W 075°31'510.4
2017-Nov-12 07:00N 39°21' W 075°27'510.2
2017-Nov-12 06:30N 39°18' W 075°22'510.1
2017-Nov-12 06:01N 39°14' W 075°18'  

Dump ship's entire track history